Time;durP1;ratioP1;P1;durP2;ratioP2;P2;SDS_P1;SDS_P2;PMS_P1;PMS_P2;Temp;Humidity;BMP_temperature;BMP_pressure;BME280_temperature;BME280_humidity;BME280_pressure;Samples;Min_cycle;Max_cycle;Signal;HPM_P1;HPM_P2
2021/12/10 00:01:49;;;;;;;;;;;20.50;91.90;;;;;;5083120;28;20415;-62
2021/12/10 00:04:16;;;;;;;;;;;20.30;92.00;;;;;;5094145;28;19916;-62
2021/12/10 00:06:45;;;;;;;;;;;20.00;92.10;;;;;;5093961;28;19908;-62
2021/12/10 00:09:16;;;;;;;;;;;19.70;92.00;;;;;;5094105;28;20391;-61
2021/12/10 00:11:49;;;;;;;;;;;19.40;92.30;;;;;;5093910;28;19915;-61
2021/12/10 00:14:16;;;;;;;;;;;19.20;92.90;;;;;;5094140;28;19908;-61
2021/12/10 00:16:43;;;;;;;;;;;19.00;93.40;;;;;;5094538;28;19954;-61
2021/12/10 00:21:39;;;;;;;;;;;18.70;92.80;;;;;;5095364;28;19934;-61
2021/12/10 00:24:06;;;;;;;;;;;18.40;93.10;;;;;;5075850;28;19961;-61
2021/12/10 00:26:33;;;;;;;;;;;18.10;93.80;;;;;;5094023;28;19908;-61
2021/12/10 00:29:03;;;;;;;;;;;17.80;94.70;;;;;;5093904;28;19994;-61
2021/12/10 00:34:17;;;;;;;;;;;17.10;97.60;;;;;;5094037;28;19915;-61
2021/12/10 00:36:44;;;;;;;;;;;16.90;98.60;;;;;;5093811;28;19908;-61
2021/12/10 00:39:11;;;;;;;;;;;17.10;99.50;;;;;;5093496;28;19942;-61
2021/12/10 00:41:38;;;;;;;;;;;17.20;97.60;;;;;;5093596;28;19912;-62
2021/12/10 00:44:05;;;;;;;;;;;17.20;97.40;;;;;;5093456;28;20175;-61
2021/12/10 00:46:32;;;;;;;;;;;17.30;97.60;;;;;;5075605;28;19959;-61
2021/12/10 00:48:58;;;;;;;;;;;17.30;97.00;;;;;;5093380;28;19908;-61
2021/12/10 00:51:25;;;;;;;;;;;17.30;97.60;;;;;;5080359;28;19942;-61
2021/12/10 00:53:52;;;;;;;;;;;17.20;97.00;;;;;;5101812;28;19920;-61
2021/12/10 00:56:19;;;;;;;;;;;17.00;96.70;;;;;;5103695;28;20320;-61
2021/12/10 00:58:45;;;;;;;;;;;16.70;97.30;;;;;;5101093;28;20428;-61
2021/12/10 01:01:15;;;;;;;;;;;16.50;97.60;;;;;;5083327;28;19962;-61
2021/12/10 01:03:46;;;;;;;;;;;16.30;98.40;;;;;;5069014;28;19916;-61
2021/12/10 01:06:13;;;;;;;;;;;16.30;99.10;;;;;;5100690;28;19907;-60
2021/12/10 01:08:41;;;;;;;;;;;16.30;99.70;;;;;;5102830;28;19912;-60
2021/12/10 01:11:09;;;;;;;;;;;16.20;99.90;;;;;;5100869;28;19912;-60
2021/12/10 01:13:37;;;;;;;;;;;15.90;99.90;;;;;;5102537;28;20338;-60
2021/12/10 01:25:09;;;;;;;;;;;15.40;99.90;;;;;;5078061;28;19935;-60
2021/12/10 01:27:26;;;;;;;;;;;15.30;99.90;;;;;;5087230;28;19908;-62
2021/12/10 01:29:56;;;;;;;;;;;15.30;99.90;;;;;;5107146;28;19912;-61
2021/12/10 01:32:23;;;;;;;;;;;15.30;99.90;;;;;;5103731;28;20333;-60
2021/12/10 01:34:50;;;;;;;;;;;15.40;99.90;;;;;;5106128;28;19912;-64
2021/12/10 01:37:16;;;;;;;;;;;15.40;99.90;;;;;;5093036;28;20015;-61
2021/12/10 01:39:43;;;;;;;;;;;15.30;99.90;;;;;;5099545;28;19931;-62
2021/12/10 01:42:18;;;;;;;;;;;15.40;99.90;;;;;;5113356;28;19968;-61
2021/12/10 01:44:45;;;;;;;;;;;15.30;99.90;;;;;;5113285;28;20276;-61
2021/12/10 01:47:13;;;;;;;;;;;15.30;99.90;;;;;;5113309;28;19915;-62
2021/12/10 01:49:41;;;;;;;;;;;15.20;99.90;;;;;;5113456;28;19908;-61
2021/12/10 01:52:07;;;;;;;;;;;15.10;99.90;;;;;;5108068;28;19933;-61
2021/12/10 01:54:36;;;;;;;;;;;15.10;99.90;;;;;;5107581;28;19955;-61
2021/12/10 01:57:03;;;;;;;;;;;15.10;99.90;;;;;;5097199;28;19912;-60
2021/12/10 01:59:31;;;;;;;;;;;15.20;99.90;;;;;;5082104;28;19968;-61
2021/12/10 02:01:59;;;;;;;;;;;15.20;99.90;;;;;;5096024;28;19912;-61
2021/12/10 02:04:26;;;;;;;;;;;15.30;99.90;;;;;;5110205;28;19915;-60
2021/12/10 02:06:53;;;;;;;;;;;15.50;99.90;;;;;;5113592;28;20391;-60
2021/12/10 02:09:20;;;;;;;;;;;15.70;99.90;;;;;;5096674;28;20357;-60
2021/12/10 02:11:47;;;;;;;;;;;15.90;99.90;;;;;;5096467;28;19908;-61
2021/12/10 02:14:13;;;;;;;;;;;16.20;99.90;;;;;;5096606;28;20347;-61
2021/12/10 02:16:40;;;;;;;;;;;16.40;99.90;;;;;;5096766;28;19908;-61
2021/12/10 02:19:07;;;;;;;;;;;16.60;99.90;;;;;;5100245;28;19908;-61
2021/12/10 02:21:34;;;;;;;;;;;16.70;99.90;;;;;;5098703;28;19911;-61
2021/12/10 02:24:02;;;;;;;;;;;16.80;99.90;;;;;;5116640;28;19912;-68
2021/12/10 02:26:32;;;;;;;;;;;17.00;99.90;;;;;;5098681;28;19912;-62
2021/12/10 02:28:59;;;;;;;;;;;17.20;99.90;;;;;;5116900;28;19958;-65
2021/12/10 02:31:26;;;;;;;;;;;17.50;99.90;;;;;;5116565;28;19911;-61
2021/12/10 02:33:55;;;;;;;;;;;17.60;99.90;;;;;;5116592;28;20302;-60
2021/12/10 02:36:23;;;;;;;;;;;17.70;99.90;;;;;;5116504;28;20002;-61
2021/12/10 02:38:50;;;;;;;;;;;17.80;99.90;;;;;;5116314;28;19968;-61
2021/12/10 02:41:17;;;;;;;;;;;17.80;99.90;;;;;;5116059;28;19994;-61
2021/12/10 02:43:44;;;;;;;;;;;17.80;99.90;;;;;;5097968;28;19916;-61
2021/12/10 02:46:11;;;;;;;;;;;17.80;99.90;;;;;;5115950;28;19912;-60
2021/12/10 02:48:38;;;;;;;;;;;17.70;99.90;;;;;;5116348;28;19908;-60
2021/12/10 02:51:05;;;;;;;;;;;17.70;99.90;;;;;;5115720;28;20280;-60
2021/12/10 02:53:36;;;;;;;;;;;17.70;99.90;;;;;;5116113;28;20431;-60
2021/12/10 02:56:03;;;;;;;;;;;17.60;99.90;;;;;;5108755;28;19908;-60
2021/12/10 02:58:30;;;;;;;;;;;17.60;99.90;;;;;;5095153;28;19908;-60
2021/12/10 03:01:02;;;;;;;;;;;17.60;99.90;;;;;;5095658;28;19951;-60
2021/12/10 03:03:29;;;;;;;;;;;17.60;99.90;;;;;;5095223;28;20031;-61
2021/12/10 03:05:56;;;;;;;;;;;17.50;99.90;;;;;;5095441;28;19908;-62
2021/12/10 03:08:23;;;;;;;;;;;17.40;99.90;;;;;;5094883;28;19974;-60
2021/12/10 03:10:49;;;;;;;;;;;17.40;99.90;;;;;;5076665;28;20364;-61
2021/12/10 03:13:17;;;;;;;;;;;17.40;99.90;;;;;;5102458;28;20368;-62
2021/12/10 03:15:44;;;;;;;;;;;17.40;99.90;;;;;;5100217;28;19908;-60
2021/12/10 03:18:12;;;;;;;;;;;17.50;99.90;;;;;;5077031;28;19912;-60
2021/12/10 03:20:39;;;;;;;;;;;17.80;99.90;;;;;;5095079;28;19908;-61
2021/12/10 03:23:06;;;;;;;;;;;18.20;99.90;;;;;;5095182;28;20383;-60
2021/12/10 03:25:33;;;;;;;;;;;18.30;99.90;;;;;;5095236;28;19908;-60
2021/12/10 03:28:00;;;;;;;;;;;18.40;99.90;;;;;;5095200;28;20001;-60
2021/12/10 03:30:28;;;;;;;;;;;18.30;99.90;;;;;;5077130;28;19908;-62
2021/12/10 03:32:54;;;;;;;;;;;18.30;99.90;;;;;;5095019;28;19961;-60
2021/12/10 03:35:25;;;;;;;;;;;18.40;99.90;;;;;;5094890;28;19919;-60
2021/12/10 03:37:52;;;;;;;;;;;18.50;99.90;;;;;;5094941;28;19908;-61
2021/12/10 03:40:19;;;;;;;;;;;18.50;99.90;;;;;;5094738;28;19908;-61
2021/12/10 03:42:47;;;;;;;;;;;18.60;99.90;;;;;;5104656;28;19912;-61
2021/12/10 03:45:14;;;;;;;;;;;18.70;99.90;;;;;;5084672;28;19922;-61
2021/12/10 03:47:41;;;;;;;;;;;18.90;99.90;;;;;;5076772;28;19908;-61
2021/12/10 03:50:09;;;;;;;;;;;19.10;99.90;;;;;;5094650;28;19908;-60
2021/12/10 03:52:35;;;;;;;;;;;19.40;99.90;;;;;;5094482;28;19919;-61
2021/12/10 03:55:03;;;;;;;;;;;19.50;99.40;;;;;;5094529;28;20400;-64
2021/12/10 03:57:30;;;;;;;;;;;19.70;99.60;;;;;;5092532;28;20306;-61
2021/12/10 03:59:57;;;;;;;;;;;19.70;98.20;;;;;;5094343;28;19908;-60
2021/12/10 04:02:23;;;;;;;;;;;20.00;98.80;;;;;;5101532;28;19912;-60
2021/12/10 04:04:50;;;;;;;;;;;20.20;97.50;;;;;;5101761;28;19943;-60
2021/12/10 04:07:18;;;;;;;;;;;20.20;97.90;;;;;;5102118;28;19973;-60
2021/12/10 04:09:45;;;;;;;;;;;20.20;97.60;;;;;;5103452;28;20284;-60
2021/12/10 04:12:12;;;;;;;;;;;20.20;97.60;;;;;;5085417;28;20004;-61
2021/12/10 04:14:40;;;;;;;;;;;20.30;97.00;;;;;;5099168;28;19912;-62
2021/12/10 04:17:06;;;;;;;;;;;20.60;97.50;;;;;;5094393;28;19908;-62
2021/12/10 04:19:34;;;;;;;;;;;20.60;97.50;;;;;;5107588;28;20052;-61
2021/12/10 04:22:01;;;;;;;;;;;20.60;97.40;;;;;;5096384;28;19912;-64
2021/12/10 04:24:29;;;;;;;;;;;20.60;96.50;;;;;;5109780;28;19916;-63
2021/12/10 04:26:57;;;;;;;;;;;20.30;96.40;;;;;;5107011;28;19912;-66
2021/12/10 04:29:24;;;;;;;;;;;20.20;96.60;;;;;;5082355;28;20005;-60
2021/12/10 04:31:51;;;;;;;;;;;20.00;96.70;;;;;;5104077;28;20032;-61
2021/12/10 04:34:18;;;;;;;;;;;20.10;96.70;;;;;;5092478;28;19991;-62
2021/12/10 04:36:45;;;;;;;;;;;19.80;96.00;;;;;;5093793;28;19973;-61
2021/12/10 04:39:12;;;;;;;;;;;19.80;96.10;;;;;;5093761;28;19985;-61
2021/12/10 04:41:39;;;;;;;;;;;19.70;96.00;;;;;;5093643;28;20360;-59
2021/12/10 04:44:07;;;;;;;;;;;19.70;96.60;;;;;;5093519;28;20265;-60
2021/12/10 04:46:34;;;;;;;;;;;19.60;96.50;;;;;;5093680;28;19912;-60
2021/12/10 04:49:02;;;;;;;;;;;19.50;96.20;;;;;;5093619;28;19912;-62
2021/12/10 04:51:31;;;;;;;;;;;19.40;96.90;;;;;;5075659;28;19909;-61
2021/12/10 04:53:58;;;;;;;;;;;19.40;96.50;;;;;;5093420;28;19916;-61
2021/12/10 04:56:25;;;;;;;;;;;19.40;96.90;;;;;;5093437;28;19916;-61
2021/12/10 04:58:53;;;;;;;;;;;19.40;96.90;;;;;;5093033;28;20007;-61
2021/12/10 05:01:20;;;;;;;;;;;19.30;96.70;;;;;;5092533;28;19958;-61
2021/12/10 05:03:47;;;;;;;;;;;19.20;96.80;;;;;;5093481;28;19920;-60
2021/12/10 05:06:14;;;;;;;;;;;19.20;96.60;;;;;;5093487;28;19909;-60
2021/12/10 05:08:41;;;;;;;;;;;19.10;96.10;;;;;;5093343;28;19912;-60
2021/12/10 05:11:09;;;;;;;;;;;19.10;96.60;;;;;;5093292;28;19908;-60
2021/12/10 05:13:36;;;;;;;;;;;19.00;96.20;;;;;;5093234;28;19908;-60
2021/12/10 05:16:03;;;;;;;;;;;19.00;96.20;;;;;;5093204;28;20261;-61
2021/12/10 05:18:31;;;;;;;;;;;19.00;96.20;;;;;;5097476;28;19912;-60
2021/12/10 05:20:58;;;;;;;;;;;18.80;96.00;;;;;;5113520;28;20360;-61
2021/12/10 05:23:25;;;;;;;;;;;18.80;96.20;;;;;;5112885;28;19915;-60
2021/12/10 05:25:52;;;;;;;;;;;18.80;96.10;;;;;;5094704;28;19907;-61
2021/12/10 05:28:20;;;;;;;;;;;18.70;96.40;;;;;;5113402;28;19915;-61
2021/12/10 05:30:47;;;;;;;;;;;18.70;96.70;;;;;;5113535;28;20291;-61
2021/12/10 05:33:17;;;;;;;;;;;18.80;96.50;;;;;;5113453;28;20345;-61
2021/12/10 05:35:45;;;;;;;;;;;18.90;96.30;;;;;;5108497;28;19915;-61
2021/12/10 05:38:12;;;;;;;;;;;18.90;96.30;;;;;;5113426;28;20287;-61
2021/12/10 05:40:39;;;;;;;;;;;19.00;96.60;;;;;;5116088;27;19915;-61
2021/12/10 05:43:06;;;;;;;;;;;19.10;96.40;;;;;;5099262;28;19930;-61
2021/12/10 05:45:33;;;;;;;;;;;19.30;96.60;;;;;;5117447;28;19955;-61
2021/12/10 05:48:00;;;;;;;;;;;19.50;96.10;;;;;;5117382;28;19977;-61
2021/12/10 05:50:27;;;;;;;;;;;19.50;96.20;;;;;;5117444;28;20395;-61
2021/12/10 05:52:55;;;;;;;;;;;19.50;96.30;;;;;;5117132;28;20332;-61
2021/12/10 05:55:22;;;;;;;;;;;19.40;95.40;;;;;;5112298;28;20328;-61
2021/12/10 05:57:48;;;;;;;;;;;19.40;95.60;;;;;;5105940;28;20276;-62
2021/12/10 06:00:17;;;;;;;;;;;19.40;95.50;;;;;;5096599;28;20360;-62
2021/12/10 06:02:44;;;;;;;;;;;19.30;96.00;;;;;;5115294;28;19914;-63
2021/12/10 06:05:11;;;;;;;;;;;19.30;95.70;;;;;;5117034;28;19915;-62
2021/12/10 06:07:39;;;;;;;;;;;19.30;96.10;;;;;;5117142;28;19907;-62
2021/12/10 06:10:07;;;;;;;;;;;19.20;95.60;;;;;;5117226;28;20352;-62
2021/12/10 06:12:34;;;;;;;;;;;19.20;96.10;;;;;;5116908;28;20002;-62
2021/12/10 06:15:01;;;;;;;;;;;19.30;96.20;;;;;;5097298;28;19912;-61
2021/12/10 06:17:28;;;;;;;;;;;19.40;96.10;;;;;;5096452;28;19909;-62
2021/12/10 06:19:55;;;;;;;;;;;19.40;96.10;;;;;;5107244;28;20018;-62
2021/12/10 06:22:22;;;;;;;;;;;19.30;96.10;;;;;;5107430;28;19908;-62
2021/12/10 06:24:48;;;;;;;;;;;19.20;95.80;;;;;;5106704;28;20376;-62
2021/12/10 06:27:15;;;;;;;;;;;19.10;96.20;;;;;;5088942;28;19908;-62
2021/12/10 06:29:42;;;;;;;;;;;19.10;96.30;;;;;;5110399;28;19908;-62
2021/12/10 06:32:10;;;;;;;;;;;19.00;96.10;;;;;;5106402;28;19998;-63
2021/12/10 06:34:37;;;;;;;;;;;19.10;96.10;;;;;;5106593;28;19908;-62
2021/12/10 06:37:04;;;;;;;;;;;19.00;96.30;;;;;;5105040;28;19951;-63
2021/12/10 06:39:31;;;;;;;;;;;19.00;96.20;;;;;;5087952;28;20204;-65
2021/12/10 06:41:58;;;;;;;;;;;19.00;96.20;;;;;;5104096;28;19961;-66
2021/12/10 06:44:25;;;;;;;;;;;19.00;96.10;;;;;;5103855;28;19981;-66
2021/12/10 06:46:52;;;;;;;;;;;18.80;96.50;;;;;;5104639;28;19908;-67
2021/12/10 06:49:19;;;;;;;;;;;18.70;96.30;;;;;;5106475;28;19909;-63
2021/12/10 06:51:46;;;;;;;;;;;18.70;96.80;;;;;;5107384;28;19908;-63
2021/12/10 06:54:13;;;;;;;;;;;18.80;96.90;;;;;;5089426;28;20329;-62
2021/12/10 06:56:40;;;;;;;;;;;18.90;97.00;;;;;;5110986;28;20002;-62
2021/12/10 06:59:09;;;;;;;;;;;19.00;96.90;;;;;;5106272;28;19957;-63
2021/12/10 07:01:38;;;;;;;;;;;19.00;96.60;;;;;;5103642;28;20359;-63
2021/12/10 07:04:05;;;;;;;;;;;19.00;96.70;;;;;;5106377;28;19977;-63
2021/12/10 07:06:32;;;;;;;;;;;18.90;96.70;;;;;;5104746;28;20284;-62
2021/12/10 07:09:00;;;;;;;;;;;18.90;96.70;;;;;;5101238;28;19927;-63
2021/12/10 07:11:27;;;;;;;;;;;18.70;97.10;;;;;;5095365;28;19962;-63
2021/12/10 07:13:55;;;;;;;;;;;18.70;97.20;;;;;;5100837;28;19931;-63
2021/12/10 07:16:22;;;;;;;;;;;18.60;97.30;;;;;;5103561;28;19916;-62
2021/12/10 07:18:49;;;;;;;;;;;18.50;97.90;;;;;;5105758;28;19908;-62
2021/12/10 07:21:17;;;;;;;;;;;18.40;98.40;;;;;;5102709;28;19953;-63
2021/12/10 07:23:44;;;;;;;;;;;18.20;99.00;;;;;;5103443;28;19915;-62
2021/12/10 07:26:11;;;;;;;;;;;18.00;99.30;;;;;;5107536;28;19911;-62
2021/12/10 07:28:38;;;;;;;;;;;17.90;99.70;;;;;;5096789;28;19959;-62
2021/12/10 07:31:05;;;;;;;;;;;17.70;99.90;;;;;;5106784;28;19922;-62
2021/12/10 07:33:32;;;;;;;;;;;17.60;99.90;;;;;;5115593;28;19907;-62
2021/12/10 07:35:59;;;;;;;;;;;17.50;99.90;;;;;;5115390;28;19908;-62
2021/12/10 07:38:26;;;;;;;;;;;17.30;99.90;;;;;;5115269;28;19960;-67
2021/12/10 07:40:53;;;;;;;;;;;17.20;99.90;;;;;;5097092;28;20355;-62
2021/12/10 07:43:20;;;;;;;;;;;17.20;99.90;;;;;;5115222;28;19915;-62
2021/12/10 07:45:47;;;;;;;;;;;17.10;99.90;;;;;;5115260;28;19955;-62
2021/12/10 07:48:17;;;;;;;;;;;17.00;99.90;;;;;;5115158;28;20292;-62
2021/12/10 07:50:50;;;;;;;;;;;16.80;99.90;;;;;;5102145;28;19915;-62
2021/12/10 07:53:19;;;;;;;;;;;16.80;99.90;;;;;;5098498;28;20195;-62
2021/12/10 07:55:46;;;;;;;;;;;16.60;99.90;;;;;;5105516;28;20041;-62
2021/12/10 07:58:13;;;;;;;;;;;16.60;99.90;;;;;;5115001;28;19908;-64
2021/12/10 08:00:40;;;;;;;;;;;16.60;99.90;;;;;;5114711;28;19908;-63
2021/12/10 08:03:08;;;;;;;;;;;16.50;99.90;;;;;;5114261;28;19907;-62
2021/12/10 08:05:36;;;;;;;;;;;16.50;99.90;;;;;;5114753;28;20287;-64
2021/12/10 08:08:05;;;;;;;;;;;16.40;99.90;;;;;;5096680;28;19907;-61
2021/12/10 08:10:32;;;;;;;;;;;16.30;99.90;;;;;;5114631;28;19907;-64
2021/12/10 08:12:59;;;;;;;;;;;16.30;99.90;;;;;;5114701;28;19908;-62
2021/12/10 08:15:26;;;;;;;;;;;16.40;99.90;;;;;;5114558;28;19915;-63
2021/12/10 08:17:53;;;;;;;;;;;16.30;99.90;;;;;;5114105;28;20292;-62
2021/12/10 08:20:21;;;;;;;;;;;16.40;99.90;;;;;;5114363;28;19908;-62
2021/12/10 08:22:48;;;;;;;;;;;16.40;99.90;;;;;;5114535;28;19908;-61
2021/12/10 08:25:15;;;;;;;;;;;16.40;99.90;;;;;;5096322;28;19911;-62
2021/12/10 08:27:42;;;;;;;;;;;16.40;99.90;;;;;;5114344;28;19907;-63
2021/12/10 08:30:10;;;;;;;;;;;16.50;99.90;;;;;;5114316;28;19908;-62
2021/12/10 08:32:38;;;;;;;;;;;16.50;99.90;;;;;;5114344;28;19994;-62
2021/12/10 08:35:06;;;;;;;;;;;16.50;99.90;;;;;;5096397;28;19908;-63
2021/12/10 08:37:33;;;;;;;;;;;16.60;99.90;;;;;;5114207;28;19908;-61
2021/12/10 08:39:59;;;;;;;;;;;16.60;99.90;;;;;;5113862;28;19908;-61
2021/12/10 08:42:26;;;;;;;;;;;16.60;99.90;;;;;;5113559;28;19953;-64
2021/12/10 08:45:06;;;;;;;;;;;16.60;99.90;;;;;;5113962;28;19919;-63
2021/12/10 08:47:33;;;;;;;;;;;16.60;99.90;;;;;;5114026;28;19934;-60
2021/12/10 08:50:00;;;;;;;;;;;16.60;99.90;;;;;;5089270;28;19962;-64
2021/12/10 08:52:27;;;;;;;;;;;16.60;99.90;;;;;;5093495;28;19966;-61
2021/12/10 08:54:54;;;;;;;;;;;16.60;99.90;;;;;;5093647;28;19961;-63
2021/12/10 08:57:22;;;;;;;;;;;16.60;99.90;;;;;;5093547;28;19912;-61
2021/12/10 08:59:49;;;;;;;;;;;16.60;99.90;;;;;;5093339;28;19908;-62
2021/12/10 09:02:16;;;;;;;;;;;16.60;99.90;;;;;;5093770;28;19911;-61
2021/12/10 09:04:43;;;;;;;;;;;16.50;99.90;;;;;;5097141;28;19919;-61
2021/12/10 09:07:11;;;;;;;;;;;16.50;99.90;;;;;;5103402;28;19908;-61
2021/12/10 09:09:40;;;;;;;;;;;16.50;99.90;;;;;;5113879;28;19908;-61
2021/12/10 09:12:09;;;;;;;;;;;16.60;99.90;;;;;;5113651;28;20011;-61
2021/12/10 09:14:42;;;;;;;;;;;16.50;99.90;;;;;;5112672;28;19908;-61
2021/12/10 09:17:09;;;;;;;;;;;16.60;99.90;;;;;;5113040;28;19919;-61
2021/12/10 09:19:37;;;;;;;;;;;16.60;99.90;;;;;;5080770;28;19908;-61
2021/12/10 09:22:04;;;;;;;;;;;16.60;99.90;;;;;;5107310;28;20293;-62
2021/12/10 09:24:31;;;;;;;;;;;16.60;99.90;;;;;;5113506;28;19935;-64
2021/12/10 09:26:58;;;;;;;;;;;16.60;99.90;;;;;;5113472;28;19908;-60
2021/12/10 09:29:26;;;;;;;;;;;16.60;99.90;;;;;;5110183;28;19912;-61
2021/12/10 09:31:53;;;;;;;;;;;16.60;99.90;;;;;;5083860;28;19908;-61
2021/12/10 09:34:21;;;;;;;;;;;16.60;99.90;;;;;;5103754;28;19912;-61
2021/12/10 09:36:52;;;;;;;;;;;16.60;99.90;;;;;;5082647;28;19922;-60
2021/12/10 09:39:19;;;;;;;;;;;16.60;99.90;;;;;;5101745;28;20060;-61
2021/12/10 09:41:46;;;;;;;;;;;16.60;99.90;;;;;;5101793;28;20371;-61
2021/12/10 09:44:15;;;;;;;;;;;16.60;99.90;;;;;;5103075;28;19912;-61
2021/12/10 09:46:42;;;;;;;;;;;16.60;99.90;;;;;;5101868;28;19919;-61
2021/12/10 09:49:10;;;;;;;;;;;16.60;99.90;;;;;;5103918;28;19915;-62
2021/12/10 09:51:39;;;;;;;;;;;16.70;99.90;;;;;;5102324;28;19908;-62
2021/12/10 09:54:11;;;;;;;;;;;16.70;99.90;;;;;;5094601;28;20402;-63
2021/12/10 09:56:39;;;;;;;;;;;16.70;99.90;;;;;;5074939;28;19909;-62
2021/12/10 09:59:06;;;;;;;;;;;16.70;99.90;;;;;;5092571;28;19908;-62
2021/12/10 10:01:33;;;;;;;;;;;16.70;99.90;;;;;;5092785;28;19914;-61
2021/12/10 10:04:01;;;;;;;;;;;16.80;99.50;;;;;;5092671;28;20011;-62
2021/12/10 10:06:29;;;;;;;;;;;16.80;99.40;;;;;;5092586;28;19908;-61
2021/12/10 10:08:56;;;;;;;;;;;16.90;99.20;;;;;;5092824;28;20325;-61
2021/12/10 10:11:24;;;;;;;;;;;16.90;99.10;;;;;;5092456;28;20373;-62
2021/12/10 10:13:52;;;;;;;;;;;16.90;99.20;;;;;;5091910;28;19938;-62
2021/12/10 10:16:20;;;;;;;;;;;16.90;99.00;;;;;;5095278;28;19918;-64
2021/12/10 10:18:48;;;;;;;;;;;16.90;99.10;;;;;;5102136;28;19957;-63
2021/12/10 10:21:17;;;;;;;;;;;16.90;98.90;;;;;;5074369;28;19934;-62
2021/12/10 10:23:45;;;;;;;;;;;16.90;99.10;;;;;;5092538;28;19912;-62
2021/12/10 10:26:13;;;;;;;;;;;16.90;99.00;;;;;;5094520;28;19954;-63
2021/12/10 10:28:40;;;;;;;;;;;16.90;99.20;;;;;;5096354;28;19996;-62
2021/12/10 10:31:10;;;;;;;;;;;16.90;99.00;;;;;;5096114;28;19908;-65
2021/12/10 10:33:37;;;;;;;;;;;16.80;99.10;;;;;;5096204;28;19977;-64
2021/12/10 10:36:07;;;;;;;;;;;16.90;99.20;;;;;;5101685;28;19908;-63
2021/12/10 10:38:34;;;;;;;;;;;16.80;98.90;;;;;;5111441;28;19908;-64
2021/12/10 10:41:07;;;;;;;;;;;16.80;99.10;;;;;;5110133;28;19916;-65
2021/12/10 10:43:35;;;;;;;;;;;16.80;98.90;;;;;;5077576;28;20376;-63
2021/12/10 10:46:02;;;;;;;;;;;16.80;99.00;;;;;;5095862;28;20372;-62
2021/12/10 10:48:29;;;;;;;;;;;16.80;98.90;;;;;;5096014;28;19961;-62
2021/12/10 10:51:05;;;;;;;;;;;16.80;98.90;;;;;;5110120;28;20348;-62
2021/12/10 10:53:33;;;;;;;;;;;16.80;98.80;;;;;;5116112;28;19920;-62
2021/12/10 10:56:07;;;;;;;;;;;16.90;98.90;;;;;;5106372;28;19920;-62
2021/12/10 10:58:36;;;;;;;;;;;16.80;98.80;;;;;;5113827;28;19976;-62
2021/12/10 11:01:09;;;;;;;;;;;16.80;98.60;;;;;;5110958;28;19908;-62
2021/12/10 11:03:39;;;;;;;;;;;16.90;98.70;;;;;;5077526;28;19919;-61
2021/12/10 11:06:08;;;;;;;;;;;16.90;98.50;;;;;;5077872;28;19915;-61
2021/12/10 11:08:38;;;;;;;;;;;16.90;98.50;;;;;;5095648;28;19908;-61
2021/12/10 11:11:15;;;;;;;;;;;16.90;98.70;;;;;;5060751;28;20011;-62
2021/12/10 11:13:45;;;;;;;;;;;16.90;98.80;;;;;;5077781;28;19915;-61
2021/12/10 11:16:14;;;;;;;;;;;16.90;98.70;;;;;;5095381;28;19999;-62
2021/12/10 11:18:53;;;;;;;;;;;17.00;98.60;;;;;;5087355;28;19916;-62
2021/12/10 11:21:37;;;;;;;;;;;17.00;98.80;;;;;;5115623;28;19912;-61
2021/12/10 11:24:21;;;;;;;;;;;17.00;98.80;;;;;;5114788;28;19916;-60
2021/12/10 11:26:52;;;;;;;;;;;17.00;98.50;;;;;;5102308;28;19915;-61
2021/12/10 11:29:29;;;;;;;;;;;17.00;98.40;;;;;;5097265;28;19908;-61
2021/12/10 11:31:59;;;;;;;;;;;17.00;98.50;;;;;;5115413;28;19908;-61
2021/12/10 11:34:44;;;;;;;;;;;17.00;98.50;;;;;;5115403;28;19915;-62
2021/12/10 11:37:12;;;;;;;;;;;17.00;98.40;;;;;;5114377;28;19908;-61
2021/12/10 11:39:56;;;;;;;;;;;17.00;98.60;;;;;;5096932;28;19908;-61
2021/12/10 11:42:38;;;;;;;;;;;17.00;98.40;;;;;;5114972;28;20006;-65
2021/12/10 11:45:27;;;;;;;;;;;17.00;98.30;;;;;;5114603;28;20494;-61
2021/12/10 11:47:54;;;;;;;;;;;17.00;98.40;;;;;;5114958;28;19912;-61
2021/12/10 11:50:21;;;;;;;;;;;17.10;98.40;;;;;;5104863;28;19912;-63
2021/12/10 11:53:06;;;;;;;;;;;17.00;98.10;;;;;;5094493;28;20371;-61
2021/12/10 11:55:35;;;;;;;;;;;17.10;97.90;;;;;;5094950;28;19919;-61
2021/12/10 11:58:03;;;;;;;;;;;17.10;98.10;;;;;;5076545;28;19908;-62
2021/12/10 12:00:32;;;;;;;;;;;17.10;98.30;;;;;;5094497;28;19915;-62
2021/12/10 12:03:00;;;;;;;;;;;17.10;98.10;;;;;;5094523;28;20257;-62
2021/12/10 12:05:31;;;;;;;;;;;17.10;98.10;;;;;;5094344;28;19916;-62
2021/12/10 12:08:00;;;;;;;;;;;17.00;98.10;;;;;;5075189;28;19916;-62
2021/12/10 12:10:31;;;;;;;;;;;17.10;98.10;;;;;;5093960;28;19908;-62
2021/12/10 12:13:03;;;;;;;;;;;17.10;98.00;;;;;;5076849;28;20395;-62
2021/12/10 12:15:46;;;;;;;;;;;17.10;97.80;;;;;;5094356;28;19957;-62
2021/12/10 12:18:22;;;;;;;;;;;17.10;97.90;;;;;;5094296;28;19966;-62
2021/12/10 12:20:52;;;;;;;;;;;17.10;97.80;;;;;;5075871;28;19908;-61
2021/12/10 12:26:12;;;;;;;;;;;17.10;97.70;;;;;;5094100;28;19919;-61
2021/12/10 12:28:40;;;;;;;;;;;17.10;97.70;;;;;;5094180;28;20371;-61
2021/12/10 12:31:07;;;;;;;;;;;17.10;97.50;;;;;;5094053;28;19908;-61
2021/12/10 12:33:50;;;;;;;;;;;17.10;97.60;;;;;;5094019;28;19915;-61
2021/12/10 12:36:17;;;;;;;;;;;17.10;97.50;;;;;;5094045;28;19992;-61
2021/12/10 12:38:45;;;;;;;;;;;17.10;97.50;;;;;;5093836;28;19916;-61
2021/12/10 12:41:14;;;;;;;;;;;17.10;97.50;;;;;;5075679;28;20391;-61
2021/12/10 12:43:41;;;;;;;;;;;17.10;97.40;;;;;;5093811;28;19998;-61
2021/12/10 12:46:10;;;;;;;;;;;17.00;97.40;;;;;;5093739;28;19988;-62
2021/12/10 12:48:37;;;;;;;;;;;17.10;97.40;;;;;;5093562;28;20008;-61
2021/12/10 12:51:12;;;;;;;;;;;17.10;97.50;;;;;;5075703;28;19955;-61
2021/12/10 12:53:39;;;;;;;;;;;17.00;97.70;;;;;;5093495;28;19920;-61
2021/12/10 12:56:10;;;;;;;;;;;17.00;97.70;;;;;;5093703;28;20364;-61
2021/12/10 12:58:42;;;;;;;;;;;17.00;97.70;;;;;;5093520;28;19908;-61
2021/12/10 13:01:24;;;;;;;;;;;17.00;97.60;;;;;;5093327;28;19965;-61
2021/12/10 13:03:52;;;;;;;;;;;17.00;97.50;;;;;;5093496;28;19973;-61
2021/12/10 13:06:24;;;;;;;;;;;17.00;97.00;;;;;;5075432;28;19939;-61
2021/12/10 13:08:58;;;;;;;;;;;17.00;97.40;;;;;;5093522;28;19918;-61
2021/12/10 13:11:28;;;;;;;;;;;16.90;97.20;;;;;;5093443;28;20273;-61
2021/12/10 13:14:11;;;;;;;;;;;16.90;96.80;;;;;;5093304;28;19915;-61
2021/12/10 13:16:45;;;;;;;;;;;16.90;97.00;;;;;;5093365;28;19909;-61
2021/12/10 13:19:16;;;;;;;;;;;17.00;96.80;;;;;;5093189;28;20386;-61
2021/12/10 13:21:44;;;;;;;;;;;16.90;96.70;;;;;;5093181;28;19908;-61
2021/12/10 13:24:12;;;;;;;;;;;16.80;97.00;;;;;;5075442;28;20000;-62
2021/12/10 13:26:39;;;;;;;;;;;16.80;97.10;;;;;;5091962;28;19909;-61
2021/12/10 13:29:06;;;;;;;;;;;16.80;97.10;;;;;;5093214;28;20295;-61
2021/12/10 13:31:34;;;;;;;;;;;16.80;96.90;;;;;;5093165;28;19908;-61
2021/12/10 13:34:01;;;;;;;;;;;16.80;96.90;;;;;;5075467;28;20358;-61
2021/12/10 13:36:28;;;;;;;;;;;16.70;97.00;;;;;;5093237;28;19962;-61
2021/12/10 13:38:55;;;;;;;;;;;16.80;96.80;;;;;;5093040;28;19961;-61
2021/12/10 13:41:22;;;;;;;;;;;16.70;96.80;;;;;;5093054;28;19913;-61
2021/12/10 13:43:55;;;;;;;;;;;16.70;96.80;;;;;;5093010;28;19908;-61
2021/12/10 13:46:23;;;;;;;;;;;16.70;96.70;;;;;;5075870;28;19912;-61
2021/12/10 13:48:51;;;;;;;;;;;16.70;96.50;;;;;;5074939;28;19908;-61
2021/12/10 13:51:23;;;;;;;;;;;16.70;96.60;;;;;;5075047;28;20280;-61
2021/12/10 13:53:57;;;;;;;;;;;16.70;96.50;;;;;;5092810;28;19975;-61
2021/12/10 13:56:24;;;;;;;;;;;16.70;96.50;;;;;;5092986;28;19908;-61
2021/12/10 13:58:51;;;;;;;;;;;16.70;96.50;;;;;;5092902;28;20519;-62
2021/12/10 14:01:34;;;;;;;;;;;16.70;96.60;;;;;;5105225;28;19958;-61
2021/12/10 14:04:02;;;;;;;;;;;16.70;96.50;;;;;;5117131;28;19927;-61
2021/12/10 14:06:43;;;;;;;;;;;16.70;96.60;;;;;;5117246;28;20359;-61
2021/12/10 14:09:13;;;;;;;;;;;16.70;96.60;;;;;;5117406;28;19908;-62
2021/12/10 14:11:56;;;;;;;;;;;16.70;96.70;;;;;;5098747;28;19950;-62
2021/12/10 14:14:37;;;;;;;;;;;16.70;96.50;;;;;;5117070;28;19919;-62
2021/12/10 14:17:05;;;;;;;;;;;16.70;96.60;;;;;;5117094;28;19986;-62
2021/12/10 14:19:33;;;;;;;;;;;16.70;96.70;;;;;;5116888;28;20006;-62
2021/12/10 14:22:00;;;;;;;;;;;16.60;96.70;;;;;;5098468;28;19995;-62
2021/12/10 14:24:41;;;;;;;;;;;16.70;96.80;;;;;;5116888;28;19911;-62
2021/12/10 14:27:13;;;;;;;;;;;16.60;96.50;;;;;;5116874;28;19915;-62
2021/12/10 14:29:40;;;;;;;;;;;16.60;96.60;;;;;;5116802;28;20383;-62
2021/12/10 14:32:18;;;;;;;;;;;16.60;96.70;;;;;;5098484;28;19907;-62
2021/12/10 14:35:05;;;;;;;;;;;16.60;96.80;;;;;;5117141;28;19908;-61
2021/12/10 14:37:51;;;;;;;;;;;16.60;96.70;;;;;;5099110;28;20002;-61
2021/12/10 14:40:19;;;;;;;;;;;16.60;96.60;;;;;;5116492;28;19908;-61
2021/12/10 14:43:15;;;;;;;;;;;16.50;96.70;;;;;;5098585;28;19914;-61